createdAt,value
2022-12-27T00:00:13.322Z,101408.97
2022-12-27T00:02:43.185Z,101416.06
2022-12-27T00:05:12.919Z,101411.81
2022-12-27T00:07:44.283Z,101419.00
2022-12-27T00:10:13.725Z,101415.56
2022-12-27T00:12:42.047Z,101419.16
2022-12-27T00:15:10.681Z,101412.13
2022-12-27T00:17:43.157Z,101415.84
2022-12-27T00:20:12.245Z,101411.47
2022-12-27T00:22:40.799Z,101424.56
2022-12-27T00:25:13.224Z,101428.00
2022-12-27T00:27:41.407Z,101422.75
2022-12-27T00:30:14.069Z,101422.06
2022-12-27T00:32:42.316Z,101430.97
2022-12-27T00:35:10.816Z,101427.31
2022-12-27T00:37:41.277Z,101433.53
2022-12-27T00:40:11.269Z,101437.19
2022-12-27T00:42:41.484Z,101444.75
2022-12-27T00:45:11.090Z,101459.66
2022-12-27T00:47:40.252Z,101448.78
2022-12-27T00:50:11.350Z,101454.16
2022-12-27T00:52:42.673Z,101451.53
2022-12-27T00:55:11.757Z,101449.00
2022-12-27T00:57:45.030Z,101452.31
2022-12-27T01:00:17.787Z,101459.25
2022-12-27T01:02:48.091Z,101452.31
2022-12-27T01:05:16.481Z,101457.88
2022-12-27T01:07:46.081Z,101459.63
2022-12-27T01:10:16.289Z,101464.00
2022-12-27T01:12:46.618Z,101467.53
2022-12-27T01:15:15.115Z,101484.34
2022-12-27T01:17:43.239Z,101477.50
2022-12-27T01:20:11.738Z,101475.00
2022-12-27T01:22:44.934Z,101476.84
2022-12-27T01:25:16.267Z,101484.78
2022-12-27T01:27:45.775Z,101479.88
2022-12-27T01:30:16.160Z,101482.59
2022-12-27T01:32:47.257Z,101483.50
2022-12-27T01:35:15.346Z,101484.59
2022-12-27T01:37:43.381Z,101487.28
2022-12-27T01:40:12.625Z,101483.75
2022-12-27T01:42:52.704Z,101486.31
2022-12-27T01:45:28.342Z,101492.22
2022-12-27T01:48:01.585Z,101487.91
2022-12-27T01:50:33.681Z,101486.91
2022-12-27T01:53:09.930Z,101497.25
2022-12-27T01:55:45.540Z,101487.75
2022-12-27T01:58:19.150Z,101493.00
2022-12-27T02:00:50.641Z,101493.00
2022-12-27T02:03:26.310Z,101507.69
2022-12-27T02:05:54.623Z,101505.25
2022-12-27T02:08:45.263Z,101506.28
2022-12-27T02:11:19.296Z,101505.31
2022-12-27T02:13:49.969Z,101513.94
2022-12-27T02:16:23.266Z,101514.09
2022-12-27T02:18:52.332Z,101518.38
2022-12-27T02:21:41.599Z,101522.00
2022-12-27T02:24:50.274Z,101515.94
2022-12-27T02:27:35.640Z,101522.63
2022-12-27T02:30:13.490Z,101523.41
2022-12-27T02:32:47.818Z,101524.31
2022-12-27T02:35:19.758Z,101533.97
2022-12-27T02:37:52.720Z,101528.94
2022-12-27T02:40:42.376Z,101540.34
2022-12-27T02:43:28.463Z,101542.03
2022-12-27T02:46:25.717Z,101538.38
2022-12-27T02:49:13.801Z,101540.34
2022-12-27T02:52:22.784Z,101542.09
2022-12-27T02:55:23.988Z,101548.19
2022-12-27T02:58:05.540Z,101546.34
2022-12-27T03:01:02.705Z,101537.56
2022-12-27T03:03:58.613Z,101542.03
2022-12-27T03:06:49.458Z,101544.53
2022-12-27T03:09:53.735Z,101537.72
2022-12-27T03:12:51.407Z,101547.50
2022-12-27T03:15:56.116Z,101549.91
2022-12-27T03:18:37.474Z,101549.00
2022-12-27T03:21:26.534Z,101544.69
2022-12-27T03:24:15.449Z,101531.81
2022-12-27T03:26:48.077Z,101528.22
2022-12-27T03:29:38.245Z,101528.13
2022-12-27T03:32:29.961Z,101527.28
2022-12-27T03:35:04.847Z,101529.91
2022-12-27T03:37:56.230Z,101533.53
2022-12-27T03:40:39.345Z,101529.44
2022-12-27T03:43:14.074Z,101525.19
2022-12-27T03:46:14.547Z,101519.31
2022-12-27T03:49:00.408Z,101519.72
2022-12-27T03:51:36.099Z,101524.81
2022-12-27T03:54:10.598Z,101527.81
2022-12-27T03:56:41.739Z,101523.41
2022-12-27T03:59:13.448Z,101534.56
2022-12-27T04:01:42.524Z,101523.63
2022-12-27T04:04:12.734Z,101542.56
2022-12-27T04:06:44.728Z,101539.19
2022-12-27T04:09:32.845Z,101542.34
2022-12-27T04:12:18.903Z,101542.06
2022-12-27T04:15:04.594Z,101545.25
2022-12-27T04:17:55.676Z,101541.72
2022-12-27T04:20:43.305Z,101554.06
2022-12-27T04:23:29.859Z,101551.88
2022-12-27T04:26:21.913Z,101550.94
2022-12-27T04:29:07.369Z,101559.88
2022-12-27T04:31:53.362Z,101555.50
2022-12-27T04:34:44.808Z,101562.47
2022-12-27T04:37:15.166Z,101559.03
2022-12-27T04:40:09.861Z,101565.09
2022-12-27T04:42:59.079Z,101568.59
2022-12-27T04:45:44.815Z,101569.28
2022-12-27T04:48:32.846Z,101570.25
2022-12-27T04:51:19.707Z,101574.44
2022-12-27T04:54:05.357Z,101574.44
2022-12-27T04:56:34.038Z,101572.69
2022-12-27T04:59:22.241Z,101571.09
2022-12-27T05:02:05.856Z,101563.59
2022-12-27T05:04:37.609Z,101571.66
2022-12-27T05:07:24.511Z,101576.41
2022-12-27T05:10:09.560Z,101577.47
2022-12-27T05:12:55.811Z,101584.53
2022-12-27T05:15:29.414Z,101586.56
2022-12-27T05:17:58.948Z,101594.38
2022-12-27T05:20:29.749Z,101590.94
2022-12-27T05:23:17.829Z,101588.38
2022-12-27T05:25:48.050Z,101588.59
2022-12-27T05:28:21.111Z,101577.41
2022-12-27T05:30:50.890Z,101589.91
2022-12-27T05:33:21.598Z,101595.97
2022-12-27T05:35:50.156Z,101602.19
2022-12-27T05:38:18.600Z,101608.97
2022-12-27T05:40:46.759Z,101612.53
2022-12-27T05:43:15.389Z,101620.19
2022-12-27T05:45:43.348Z,101620.06
2022-12-27T05:48:13.448Z,101617.75
2022-12-27T05:50:45.541Z,101609.81
2022-12-27T05:53:14.913Z,101616.63
2022-12-27T05:55:44.294Z,101616.44
2022-12-27T05:58:14.617Z,101611.41
2022-12-27T06:00:48.259Z,101615.84
2022-12-27T06:03:18.527Z,101623.09
2022-12-27T06:05:47.140Z,101633.41
2022-12-27T06:08:19.528Z,101637.66
2022-12-27T06:10:49.437Z,101635.88
2022-12-27T06:13:19.237Z,101638.31
2022-12-27T06:15:48.032Z,101633.97
2022-12-27T06:18:18.836Z,101639.66
2022-12-27T06:20:49.813Z,101629.22
2022-12-27T06:23:20.009Z,101637.84
2022-12-27T06:25:48.331Z,101629.91
2022-12-27T06:28:18.895Z,101639.50
2022-12-27T06:31:15.186Z,101642.00
2022-12-27T06:33:46.401Z,101643.81
2022-12-27T06:36:17.575Z,101650.06
2022-12-27T06:38:46.460Z,101654.44
2022-12-27T06:41:20.671Z,101657.03
2022-12-27T06:43:49.372Z,101653.28
2022-12-27T06:46:19.287Z,101658.34
2022-12-27T06:48:52.373Z,101659.19
2022-12-27T06:51:23.580Z,101661.78
2022-12-27T06:53:52.076Z,101671.22
2022-12-27T06:56:24.930Z,101667.91
2022-12-27T06:58:53.855Z,101667.97
2022-12-27T07:01:27.679Z,101673.06
2022-12-27T07:03:59.608Z,101669.88
2022-12-27T07:06:34.585Z,101671.38
2022-12-27T07:09:04.005Z,101675.66
2022-12-27T07:11:33.522Z,101683.47
2022-12-27T07:14:02.993Z,101686.81
2022-12-27T07:16:32.284Z,101689.44
2022-12-27T07:19:02.040Z,101684.28
2022-12-27T07:21:31.330Z,101680.84
2022-12-27T07:23:59.678Z,101683.66
2022-12-27T07:26:31.430Z,101686.34
2022-12-27T07:29:02.774Z,101693.03
2022-12-27T07:31:34.610Z,101699.91
2022-12-27T07:34:10.832Z,101700.66
2022-12-27T07:36:41.629Z,101704.91
2022-12-27T07:39:12.765Z,101702.41
2022-12-27T07:41:41.144Z,101708.50
2022-12-27T07:44:14.175Z,101707.72
2022-12-27T07:46:48.276Z,101709.47
2022-12-27T07:49:22.674Z,101707.53
2022-12-27T07:51:51.834Z,101706.13
2022-12-27T07:54:21.606Z,101699.78
2022-12-27T07:56:50.918Z,101704.97
2022-12-27T07:59:22.938Z,101717.72
2022-12-27T08:02:06.571Z,101717.88
2022-12-27T08:04:38.883Z,101719.75
2022-12-27T08:07:10.152Z,101717.84
2022-12-27T08:09:41.763Z,101724.56
2022-12-27T08:12:11.516Z,101720.47
2022-12-27T08:14:42.304Z,101729.06
2022-12-27T08:17:18.822Z,101722.44
2022-12-27T08:19:54.557Z,101726.69
2022-12-27T08:22:26.961Z,101718.78
2022-12-27T08:24:55.896Z,101715.09
2022-12-27T08:27:26.055Z,101720.38
2022-12-27T08:29:54.587Z,101716.53
2022-12-27T08:32:25.095Z,101713.94
2022-12-27T08:35:02.659Z,101715.44
2022-12-27T08:37:40.291Z,101708.09
2022-12-27T08:40:10.380Z,101702.72
2022-12-27T08:42:41.668Z,101707.56
2022-12-27T08:45:10.749Z,101720.38
2022-12-27T08:47:40.541Z,101727.66
2022-12-27T08:50:10.822Z,101735.03
2022-12-27T08:52:39.130Z,101724.72
2022-12-27T08:55:09.975Z,101737.94
2022-12-27T08:57:38.739Z,101734.03
2022-12-27T09:00:08.925Z,101732.88
2022-12-27T09:02:38.728Z,101746.47
2022-12-27T09:05:08.808Z,101747.53
2022-12-27T09:07:38.334Z,101748.31
2022-12-27T09:10:08.185Z,101748.31
2022-12-27T09:12:45.561Z,101758.59
2022-12-27T09:15:14.106Z,101762.84
2022-12-27T09:17:44.145Z,101755.63
2022-12-27T09:20:13.954Z,101765.81
2022-12-27T09:22:43.708Z,101762.88
2022-12-27T09:25:11.723Z,101757.16
2022-12-27T09:27:41.537Z,101748.19
2022-12-27T09:30:10.793Z,101751.44
2022-12-27T09:32:41.324Z,101763.56
2022-12-27T09:35:11.551Z,101756.88
2022-12-27T09:37:48.184Z,101754.72
2022-12-27T09:40:18.956Z,101754.75
2022-12-27T09:43:11.817Z,101761.69
2022-12-27T09:45:49.021Z,101768.75
2022-12-27T09:48:33.337Z,101771.19
2022-12-27T09:51:06.445Z,101780.44
2022-12-27T09:53:47.679Z,101770.94
2022-12-27T09:56:22.826Z,101772.78
2022-12-27T09:58:55.597Z,101762.84
2022-12-27T10:01:27.334Z,101762.50
2022-12-27T10:03:56.533Z,101765.34
2022-12-27T10:06:52.622Z,101770.59
2022-12-27T10:09:34.885Z,101768.31
2022-12-27T10:12:24.398Z,101763.84
2022-12-27T10:15:15.007Z,101771.56
2022-12-27T10:17:56.423Z,101781.66
2022-12-27T10:20:58.605Z,101780.47
2022-12-27T10:23:39.856Z,101772.94
2022-12-27T10:26:20.532Z,101771.16
2022-12-27T10:28:58.001Z,101773.44
2022-12-27T10:31:27.669Z,101768.97
2022-12-27T10:33:57.797Z,101759.50
2022-12-27T10:36:28.649Z,101767.59
2022-12-27T10:38:57.046Z,101761.66
2022-12-27T10:41:39.982Z,101762.28
2022-12-27T10:44:12.591Z,101775.88
2022-12-27T10:46:44.842Z,101768.81
2022-12-27T10:49:27.234Z,101770.28
2022-12-27T10:51:59.357Z,101769.75
2022-12-27T10:54:30.266Z,101780.50
2022-12-27T10:57:25.581Z,101775.41
2022-12-27T11:00:16.981Z,101775.31
2022-12-27T11:02:52.835Z,101779.38
2022-12-27T11:05:25.855Z,101800.84
2022-12-27T11:07:58.210Z,101776.53
2022-12-27T11:10:28.964Z,101780.44
2022-12-27T11:13:04.108Z,101783.13
2022-12-27T11:15:35.096Z,101786.25
2022-12-27T11:18:12.520Z,101771.38
2022-12-27T11:20:43.224Z,101781.88
2022-12-27T11:23:16.554Z,101781.22
2022-12-27T11:25:53.701Z,101766.03
2022-12-27T11:28:35.287Z,101765.09
2022-12-27T11:31:10.269Z,101761.00
2022-12-27T11:33:47.665Z,101759.31
2022-12-27T11:36:24.018Z,101756.44
2022-12-27T11:38:52.846Z,101765.09
2022-12-27T11:41:28.136Z,101769.50
2022-12-27T11:44:06.990Z,101765.22
2022-12-27T11:46:43.169Z,101764.69
2022-12-27T11:49:20.249Z,101761.97
2022-12-27T11:52:07.003Z,101752.16
2022-12-27T11:55:01.769Z,101756.44
2022-12-27T11:57:44.512Z,101753.59
2022-12-27T12:00:19.631Z,101747.94
2022-12-27T12:03:39.160Z,101750.25
2022-12-27T12:06:20.472Z,101752.47
2022-12-27T12:09:20.740Z,101766.81
2022-12-27T12:12:08.063Z,101749.25
2022-12-27T12:14:57.795Z,101740.84
2022-12-27T12:18:07.910Z,101739.16
2022-12-27T12:20:50.931Z,101747.44
2022-12-27T12:23:31.495Z,101752.69
2022-12-27T12:26:17.480Z,101745.94
2022-12-27T12:29:17.852Z,101754.19
2022-12-27T12:32:14.178Z,101745.16
2022-12-27T12:35:08.914Z,101750.63
2022-12-27T12:38:03.597Z,101747.56
2022-12-27T12:40:48.564Z,101741.09
2022-12-27T12:43:33.724Z,101743.94
2022-12-27T12:46:23.904Z,101746.56
2022-12-27T12:49:38.490Z,101755.72
2022-12-27T12:52:31.974Z,101743.69
2022-12-27T12:55:24.485Z,101742.75
2022-12-27T12:58:06.585Z,101737.44
2022-12-27T13:00:57.294Z,101736.00
2022-12-27T13:03:50.947Z,101731.75
2022-12-27T13:06:37.725Z,101727.97
2022-12-27T13:09:21.077Z,101728.47
2022-12-27T13:12:00.186Z,101729.78
2022-12-27T13:14:49.263Z,101736.16
2022-12-27T13:17:23.680Z,101737.09
2022-12-27T13:20:10.446Z,101732.91
2022-12-27T13:22:49.526Z,101741.88
2022-12-27T13:25:29.634Z,101733.06
2022-12-27T13:28:07.511Z,101745.25
2022-12-27T13:30:42.285Z,101736.34
2022-12-27T13:33:39.665Z,101723.06
2022-12-27T13:36:22.076Z,101727.66
2022-12-27T13:39:13.919Z,101719.63
2022-12-27T13:42:04.927Z,101719.59
2022-12-27T13:44:49.248Z,101716.66
2022-12-27T13:47:52.696Z,101718.38
2022-12-27T13:50:43.016Z,101707.03
2022-12-27T13:53:39.088Z,101707.56
2022-12-27T13:56:53.409Z,101699.97
2022-12-27T13:59:37.571Z,101696.88
2022-12-27T14:02:31.281Z,101703.31
2022-12-27T14:05:36.687Z,101694.63
2022-12-27T14:08:17.688Z,101696.75
2022-12-27T14:10:49.069Z,101690.09
2022-12-27T14:13:26.261Z,101699.63
2022-12-27T14:16:21.387Z,101704.75
2022-12-27T14:19:14.010Z,101702.69
2022-12-27T14:22:04.745Z,101706.31
2022-12-27T14:25:26.362Z,101708.34
2022-12-27T14:28:54.753Z,101699.06
2022-12-27T14:32:05.744Z,101705.66
2022-12-27T14:35:13.595Z,101696.25
2022-12-27T14:38:12.666Z,101691.22
2022-12-27T14:41:11.227Z,101697.56
2022-12-27T14:44:30.339Z,101687.69
2022-12-27T14:47:20.392Z,101687.59
2022-12-27T14:50:34.629Z,101686.97
2022-12-27T14:53:36.143Z,101677.13
2022-12-27T14:56:21.821Z,101684.69
2022-12-27T14:59:01.897Z,101673.41
2022-12-27T15:01:45.498Z,101672.84
2022-12-27T15:04:43.341Z,101679.09
2022-12-27T15:07:48.075Z,101685.50
2022-12-27T15:10:28.520Z,101684.16
2022-12-27T15:13:14.601Z,101702.66
2022-12-27T15:15:55.612Z,101698.41
2022-12-27T15:19:00.203Z,101701.47
2022-12-27T15:21:45.018Z,101702.81
2022-12-27T15:24:27.483Z,101700.09
2022-12-27T15:27:06.976Z,101700.31
2022-12-27T15:29:46.854Z,101712.16
2022-12-27T15:32:29.371Z,101706.63
2022-12-27T15:35:21.210Z,101714.03
2022-12-27T15:38:01.935Z,101711.47
2022-12-27T15:40:52.256Z,101715.53
2022-12-27T15:43:45.696Z,101716.66
2022-12-27T15:46:35.917Z,101707.09
2022-12-27T15:49:22.839Z,101705.59
2022-12-27T15:52:01.038Z,101703.25
2022-12-27T15:54:57.146Z,101696.31
2022-12-27T15:57:51.100Z,101699.03
2022-12-27T16:00:32.468Z,101704.53
2022-12-27T16:03:03.820Z,101706.25
2022-12-27T16:05:45.323Z,101703.56
2022-12-27T16:08:29.951Z,101695.13
2022-12-27T16:11:02.731Z,101700.22
2022-12-27T16:13:45.074Z,101701.19
2022-12-27T16:16:56.048Z,101700.59
2022-12-27T16:19:51.692Z,101697.41
2022-12-27T16:22:31.132Z,101700.06
2022-12-27T16:25:00.209Z,101696.69
2022-12-27T16:27:33.290Z,101697.75
2022-12-27T16:30:01.397Z,101685.00
2022-12-27T16:32:31.942Z,101678.97
2022-12-27T16:35:14.373Z,101678.97
2022-12-27T16:37:45.951Z,101676.34
2022-12-27T16:40:39.709Z,101678.44
2022-12-27T16:43:43.248Z,101673.22
2022-12-27T16:46:59.262Z,101671.75
2022-12-27T16:49:55.737Z,101678.03
2022-12-27T16:52:53.086Z,101687.78
2022-12-27T16:55:37.371Z,101687.13
2022-12-27T16:58:34.639Z,101683.28
2022-12-27T17:01:05.643Z,101675.50
2022-12-27T17:03:52.737Z,101675.50
2022-12-27T17:06:58.101Z,101677.34
2022-12-27T17:09:45.925Z,101681.78
2022-12-27T17:12:24.255Z,101675.88
2022-12-27T17:15:01.941Z,101679.66
2022-12-27T17:17:33.185Z,101673.63
2022-12-27T17:20:16.736Z,101668.66
2022-12-27T17:22:48.332Z,101671.31
2022-12-27T17:25:22.804Z,101667.88
2022-12-27T17:28:06.505Z,101661.78
2022-12-27T17:30:48.946Z,101666.41
2022-12-27T17:33:31.737Z,101659.63
2022-12-27T17:36:32.138Z,101658.84
2022-12-27T17:39:19.352Z,101651.88
2022-12-27T17:42:17.579Z,101651.00
2022-12-27T17:45:05.070Z,101658.13
2022-12-27T17:48:00.416Z,101648.72
2022-12-27T17:50:29.211Z,101644.25
2022-12-27T17:53:32.710Z,101630.41
2022-12-27T17:56:20.769Z,101633.69
2022-12-27T17:58:53.784Z,101628.44
2022-12-27T18:01:24.577Z,101642.44
2022-12-27T18:03:54.968Z,101635.22
2022-12-27T18:06:23.796Z,101639.34
2022-12-27T18:08:53.179Z,101644.38
2022-12-27T18:11:28.060Z,101636.00
2022-12-27T18:13:59.026Z,101639.22
2022-12-27T18:16:41.109Z,101628.53
2022-12-27T18:19:33.727Z,101623.03
2022-12-27T18:22:04.400Z,101628.22
2022-12-27T18:24:36.526Z,101625.94
2022-12-27T18:27:18.535Z,101627.00
2022-12-27T18:29:50.249Z,101623.72
2022-12-27T18:32:23.455Z,101613.94
2022-12-27T18:35:02.607Z,101618.38
2022-12-27T18:37:36.259Z,101623.59
2022-12-27T18:40:06.335Z,101615.06
2022-12-27T18:42:37.681Z,101617.00
2022-12-27T18:45:10.167Z,101611.59
2022-12-27T18:47:48.693Z,101617.50
2022-12-27T18:50:24.459Z,101607.19
2022-12-27T18:53:03.361Z,101610.63
2022-12-27T18:55:39.678Z,101609.72
2022-12-27T18:58:20.437Z,101611.81
2022-12-27T19:00:53.886Z,101613.81
2022-12-27T19:03:27.336Z,101612.41
2022-12-27T19:06:05.059Z,101606.34
2022-12-27T19:08:40.500Z,101601.97
2022-12-27T19:11:22.077Z,101594.34
2022-12-27T19:13:53.514Z,101600.78
2022-12-27T19:16:25.334Z,101596.53
2022-12-27T19:18:58.412Z,101600.09
2022-12-27T19:21:35.231Z,101590.22
2022-12-27T19:24:21.609Z,101592.44
2022-12-27T19:26:49.590Z,101576.50
2022-12-27T19:29:21.906Z,101577.22
2022-12-27T19:32:00.170Z,101576.13
2022-12-27T19:34:31.928Z,101581.06
2022-12-27T19:37:02.090Z,101570.53
2022-12-27T19:39:36.930Z,101574.13
2022-12-27T19:42:13.385Z,101570.63
2022-12-27T19:44:43.445Z,101564.53
2022-12-27T19:47:14.493Z,101560.09
2022-12-27T19:49:45.533Z,101553.00
2022-12-27T19:52:20.796Z,101548.56
2022-12-27T19:54:53.576Z,101546.84
2022-12-27T19:57:22.513Z,101542.63
2022-12-27T19:59:51.720Z,101532.22
2022-12-27T20:02:21.288Z,101527.91
2022-12-27T20:04:52.766Z,101524.50
2022-12-27T20:07:24.728Z,101528.84
2022-12-27T20:09:53.973Z,101525.31
2022-12-27T20:12:22.916Z,101514.19
2022-12-27T20:14:58.052Z,101509.94
2022-12-27T20:17:27.892Z,101508.38
2022-12-27T20:19:58.016Z,101518.84
2022-12-27T20:22:27.644Z,101516.19
2022-12-27T20:25:02.836Z,101510.25
2022-12-27T20:27:31.715Z,101516.34
2022-12-27T20:30:00.672Z,101521.72
2022-12-27T20:32:31.364Z,101516.91
2022-12-27T20:34:59.751Z,101510.16
2022-12-27T20:37:32.299Z,101504.88
2022-12-27T20:40:09.903Z,101494.59
2022-12-27T20:42:37.981Z,101501.47
2022-12-27T20:45:12.084Z,101490.28
2022-12-27T20:47:43.649Z,101491.41
2022-12-27T20:50:12.020Z,101489.75
2022-12-27T20:52:48.015Z,101487.09
2022-12-27T20:55:16.383Z,101480.41
2022-12-27T20:57:44.701Z,101477.56
2022-12-27T21:00:18.366Z,101470.25
2022-12-27T21:02:47.732Z,101476.00
2022-12-27T21:05:22.114Z,101483.19
2022-12-27T21:07:52.099Z,101483.41
2022-12-27T21:10:22.533Z,101478.97
2022-12-27T21:12:53.918Z,101482.63
2022-12-27T21:15:24.320Z,101472.19
2022-12-27T21:17:53.608Z,101463.63
2022-12-27T21:20:22.728Z,101481.94
2022-12-27T21:22:52.440Z,101481.81
2022-12-27T21:25:23.514Z,101471.47
2022-12-27T21:27:52.681Z,101476.03
2022-12-27T21:30:22.091Z,101473.38
2022-12-27T21:32:50.671Z,101480.25
2022-12-27T21:35:18.868Z,101476.00
2022-12-27T21:37:47.198Z,101477.88
2022-12-27T21:40:21.053Z,101470.97
2022-12-27T21:42:50.348Z,101461.53
2022-12-27T21:45:20.163Z,101472.09
2022-12-27T21:47:52.639Z,101462.63
2022-12-27T21:50:21.255Z,101463.53
2022-12-27T21:52:50.896Z,101461.19
2022-12-27T21:55:26.358Z,101465.66
2022-12-27T21:57:55.505Z,101464.59
2022-12-27T22:00:27.518Z,101464.53
2022-12-27T22:02:57.623Z,101459.31
2022-12-27T22:05:31.850Z,101451.44
2022-12-27T22:08:03.301Z,101447.81
2022-12-27T22:10:37.444Z,101453.94
2022-12-27T22:13:09.178Z,101442.75
2022-12-27T22:15:40.501Z,101441.19
2022-12-27T22:18:16.253Z,101438.75
2022-12-27T22:20:47.185Z,101432.91
2022-12-27T22:23:19.493Z,101430.25
2022-12-27T22:25:49.978Z,101425.22
2022-12-27T22:28:18.287Z,101417.44
2022-12-27T22:30:46.487Z,101410.31
2022-12-27T22:33:15.843Z,101404.22
2022-12-27T22:35:45.432Z,101401.78
2022-12-27T22:38:13.423Z,101412.34
2022-12-27T22:40:48.866Z,101411.53
2022-12-27T22:43:19.931Z,101411.34
2022-12-27T22:45:53.584Z,101398.22
2022-12-27T22:48:25.068Z,101395.28
2022-12-27T22:50:55.214Z,101396.28
2022-12-27T22:53:25.592Z,101394.28
2022-12-27T22:55:56.433Z,101393.25
2022-12-27T22:58:30.770Z,101390.81
2022-12-27T23:01:00.987Z,101395.16
2022-12-27T23:03:29.863Z,101392.63
2022-12-27T23:06:02.745Z,101391.88
2022-12-27T23:08:30.778Z,101399.50
2022-12-27T23:11:03.839Z,101394.66
2022-12-27T23:13:36.287Z,101398.97
2022-12-27T23:16:06.520Z,101395.41
2022-12-27T23:18:36.950Z,101394.38
2022-12-27T23:21:20.990Z,101389.34
2022-12-27T23:23:54.728Z,101384.34
2022-12-27T23:26:28.520Z,101387.72
2022-12-27T23:29:02.518Z,101380.72
2022-12-27T23:31:30.923Z,101367.91
2022-12-27T23:34:01.861Z,101361.78
2022-12-27T23:36:35.727Z,101351.50
2022-12-27T23:39:04.007Z,101358.50
2022-12-27T23:41:36.884Z,101359.38
2022-12-27T23:44:07.538Z,101357.44
2022-12-27T23:46:40.443Z,101353.94
2022-12-27T23:49:11.472Z,101352.09
2022-12-27T23:51:39.653Z,101350.41
2022-12-27T23:54:10.753Z,101345.16
2022-12-27T23:56:42.532Z,101339.94
2022-12-27T23:59:17.262Z,101332.16
